createdAt,value
2018-01-14T00:00:03.368Z,2.20
2018-01-14T00:01:08.110Z,2.19
2018-01-14T00:02:12.808Z,2.20
2018-01-14T00:03:17.488Z,2.14
2018-01-14T00:04:22.640Z,2.14
2018-01-14T00:05:27.281Z,2.15
2018-01-14T00:06:31.946Z,2.15
2018-01-14T00:07:36.766Z,2.12
2018-01-14T00:08:41.405Z,2.13
2018-01-14T00:09:46.025Z,2.14
2018-01-14T00:10:50.936Z,2.10
2018-01-14T00:11:55.498Z,2.08
2018-01-14T00:13:00.027Z,2.11
2018-01-14T00:14:04.658Z,2.18
2018-01-14T00:15:09.419Z,2.20
2018-01-14T00:16:14.151Z,2.23
2018-01-14T00:17:19.275Z,2.23
2018-01-14T00:18:23.987Z,2.25
2018-01-14T00:19:28.759Z,2.23
2018-01-14T00:20:33.473Z,2.24
2018-01-14T00:21:38.186Z,2.21
2018-01-14T00:22:42.929Z,2.20
2018-01-14T00:23:47.967Z,2.20
2018-01-14T00:24:52.837Z,2.08
2018-01-14T00:25:57.513Z,2.07
2018-01-14T00:27:02.209Z,2.11
2018-01-14T00:28:06.953Z,2.11
2018-01-14T00:29:11.669Z,2.07
2018-01-14T00:30:16.719Z,2.10
2018-01-14T00:31:21.396Z,2.08
2018-01-14T00:32:26.094Z,2.12
2018-01-14T00:33:30.990Z,2.06
2018-01-14T00:34:35.688Z,2.04
2018-01-14T00:35:40.407Z,2.07
2018-01-14T00:36:45.592Z,2.06
2018-01-14T00:37:50.283Z,2.01
2018-01-14T00:38:54.958Z,1.98
2018-01-14T00:40:00.456Z,1.98
2018-01-14T00:41:05.217Z,2.04
2018-01-14T00:42:09.913Z,2.01
2018-01-14T00:43:15.230Z,2.04
2018-01-14T00:44:19.992Z,2.03
2018-01-14T00:45:24.759Z,2.02
2018-01-14T00:46:29.564Z,2.05
2018-01-14T00:47:34.297Z,2.01
2018-01-14T00:48:39.060Z,1.92
2018-01-14T00:49:45.223Z,1.90
2018-01-14T00:50:49.867Z,1.91
2018-01-14T00:51:54.648Z,1.91
2018-01-14T00:52:59.264Z,1.90
2018-01-14T00:54:03.977Z,1.85
2018-01-14T00:55:08.601Z,1.87
2018-01-14T00:56:13.654Z,1.87
2018-01-14T00:57:18.259Z,1.90
2018-01-14T00:58:22.914Z,1.93
2018-01-14T00:59:27.512Z,1.94
2018-01-14T01:00:32.163Z,1.89
2018-01-14T01:01:36.760Z,1.92
2018-01-14T01:02:41.343Z,1.93
2018-01-14T01:03:46.053Z,1.92
2018-01-14T01:04:50.624Z,1.89
2018-01-14T01:05:55.197Z,1.86
2018-01-14T01:06:59.757Z,1.84
2018-01-14T01:08:04.719Z,1.84
2018-01-14T01:09:09.373Z,1.87
2018-01-14T01:10:14.071Z,1.88
2018-01-14T01:11:18.689Z,1.81
2018-01-14T01:12:23.316Z,1.89
2018-01-14T01:13:27.967Z,1.86
2018-01-14T01:14:33.053Z,1.85
2018-01-14T01:15:37.659Z,1.72
2018-01-14T01:16:42.250Z,1.74
2018-01-14T01:17:46.867Z,1.77
2018-01-14T01:18:51.473Z,1.84
2018-01-14T01:19:56.107Z,1.86
2018-01-14T01:21:01.176Z,1.77
2018-01-14T01:22:05.735Z,1.75
2018-01-14T01:23:10.501Z,1.82
2018-01-14T01:24:15.203Z,1.85
2018-01-14T01:25:20.078Z,1.86
2018-01-14T01:26:24.875Z,1.83
2018-01-14T01:27:29.960Z,1.76
2018-01-14T01:28:34.643Z,1.73
2018-01-14T01:29:39.418Z,1.75
2018-01-14T01:30:44.116Z,1.76
2018-01-14T01:31:48.816Z,1.74
2018-01-14T01:32:53.543Z,1.79
2018-01-14T01:33:58.632Z,1.82
2018-01-14T01:35:03.391Z,1.80
2018-01-14T01:36:08.076Z,1.78
2018-01-14T01:37:12.780Z,1.69
2018-01-14T01:38:17.565Z,1.64
2018-01-14T01:39:22.256Z,1.59
2018-01-14T01:40:26.959Z,1.61
2018-01-14T01:41:31.749Z,1.63
2018-01-14T01:42:36.452Z,1.56
2018-01-14T01:43:41.216Z,1.54
2018-01-14T01:44:45.934Z,1.53
2018-01-14T01:45:51.167Z,1.53
2018-01-14T01:46:55.845Z,1.56
2018-01-14T01:48:00.478Z,1.57
2018-01-14T01:49:05.106Z,1.59
2018-01-14T01:50:09.850Z,1.60
2018-01-14T01:51:14.558Z,1.59
2018-01-14T01:52:19.669Z,1.53
2018-01-14T01:53:24.382Z,1.50
2018-01-14T01:54:29.185Z,1.50
2018-01-14T01:55:33.907Z,1.45
2018-01-14T01:56:38.605Z,1.46
2018-01-14T01:57:43.269Z,1.48
2018-01-14T01:58:48.331Z,1.49
2018-01-14T01:59:53.107Z,1.54
2018-01-14T02:00:57.804Z,1.57
2018-01-14T02:02:02.586Z,1.57
2018-01-14T02:03:07.355Z,1.51
2018-01-14T02:04:12.034Z,1.43
2018-01-14T02:05:16.859Z,1.42
2018-01-14T02:06:21.540Z,1.49
2018-01-14T02:07:26.312Z,1.44
2018-01-14T02:08:30.976Z,1.42
2018-01-14T02:09:35.704Z,1.43
2018-01-14T02:10:40.406Z,1.46
2018-01-14T02:11:45.569Z,1.45
2018-01-14T02:12:50.368Z,1.52
2018-01-14T02:13:55.093Z,1.48
2018-01-14T02:14:59.808Z,1.46
2018-01-14T02:16:04.413Z,1.42
2018-01-14T02:17:09.078Z,1.38
2018-01-14T02:18:14.256Z,1.38
2018-01-14T02:19:18.943Z,1.42
2018-01-14T02:20:23.636Z,1.39
2018-01-14T02:21:28.410Z,1.37
2018-01-14T02:22:33.089Z,1.37
2018-01-14T02:23:37.948Z,1.37
2018-01-14T02:24:43.050Z,1.36
2018-01-14T02:25:47.713Z,1.38
2018-01-14T02:26:52.309Z,1.42
2018-01-14T02:27:56.851Z,1.40
2018-01-14T02:29:01.421Z,1.42
2018-01-14T02:30:06.185Z,1.38
2018-01-14T02:32:26.493Z,1.35
2018-01-14T02:33:31.174Z,1.30
2018-01-14T02:34:35.892Z,1.31
2018-01-14T02:35:40.578Z,1.34
2018-01-14T02:36:45.275Z,1.41
2018-01-14T02:37:50.429Z,1.29
2018-01-14T02:38:55.140Z,1.28
2018-01-14T02:39:59.765Z,1.27
2018-01-14T02:41:04.316Z,1.27
2018-01-14T02:42:09.065Z,1.29
2018-01-14T02:43:13.809Z,1.29
2018-01-14T02:44:18.932Z,1.26
2018-01-14T02:45:23.657Z,1.33
2018-01-14T02:46:28.416Z,1.29
2018-01-14T02:47:33.100Z,1.27
2018-01-14T02:48:37.859Z,1.26
2018-01-14T02:49:42.554Z,1.31
2018-01-14T02:50:47.632Z,1.31
2018-01-14T02:51:52.411Z,1.26
2018-01-14T02:52:57.135Z,1.27
2018-01-14T02:54:01.888Z,1.29
2018-01-14T02:55:06.721Z,1.29
2018-01-14T02:56:11.511Z,1.36
2018-01-14T02:57:16.677Z,1.34
2018-01-14T02:58:21.293Z,1.30
2018-01-14T02:59:26.046Z,1.33
2018-01-14T03:00:30.781Z,1.29
2018-01-14T03:01:35.458Z,1.27
2018-01-14T03:02:40.101Z,1.30
2018-01-14T03:03:45.174Z,1.33
2018-01-14T03:04:49.909Z,1.32
2018-01-14T03:05:54.609Z,1.28
2018-01-14T03:06:59.305Z,1.30
2018-01-14T03:08:04.025Z,1.29
2018-01-14T03:09:08.557Z,1.33
2018-01-14T03:10:13.592Z,1.29
2018-01-14T03:11:18.324Z,1.28
2018-01-14T03:12:23.001Z,1.27
2018-01-14T03:13:27.761Z,1.26
2018-01-14T03:14:32.429Z,1.23
2018-01-14T03:15:37.568Z,1.29
2018-01-14T03:16:42.345Z,1.32
2018-01-14T03:17:47.210Z,1.29
2018-01-14T03:18:51.899Z,1.28
2018-01-14T03:19:56.611Z,1.29
2018-01-14T03:21:01.322Z,1.34
2018-01-14T03:22:06.390Z,1.33
2018-01-14T03:23:11.065Z,1.27
2018-01-14T03:24:15.782Z,1.34
2018-01-14T03:25:20.475Z,1.36
2018-01-14T03:26:25.149Z,1.42
2018-01-14T03:27:29.827Z,1.38
2018-01-14T03:28:34.889Z,1.28
2018-01-14T03:29:39.611Z,1.20
2018-01-14T03:30:44.342Z,1.21
2018-01-14T03:31:49.034Z,1.24
2018-01-14T03:32:53.724Z,1.26
2018-01-14T03:33:58.423Z,1.34
2018-01-14T03:35:03.549Z,1.28
2018-01-14T03:36:08.278Z,1.27
2018-01-14T03:37:13.011Z,1.31
2018-01-14T03:38:17.737Z,1.32
2018-01-14T03:39:22.402Z,1.33
2018-01-14T03:40:27.172Z,1.24
2018-01-14T03:41:32.254Z,1.21
2018-01-14T03:42:37.031Z,1.18
2018-01-14T03:43:41.691Z,1.21
2018-01-14T03:44:46.478Z,1.20
2018-01-14T03:45:51.149Z,1.25
2018-01-14T03:46:55.988Z,1.19
2018-01-14T03:48:01.163Z,1.20
2018-01-14T03:49:05.940Z,1.26
2018-01-14T03:50:10.657Z,1.22
2018-01-14T03:51:15.370Z,1.25
2018-01-14T03:52:20.105Z,1.29
2018-01-14T03:53:24.798Z,1.27
2018-01-14T03:54:29.889Z,1.27
2018-01-14T03:55:34.544Z,1.29
2018-01-14T03:56:39.272Z,1.25
2018-01-14T03:57:43.949Z,1.25
2018-01-14T03:58:48.713Z,1.14
2018-01-14T03:59:53.405Z,1.17
2018-01-14T04:00:58.590Z,1.13
2018-01-14T04:02:03.293Z,1.13
2018-01-14T04:03:08.021Z,1.16
2018-01-14T04:04:12.716Z,1.17
2018-01-14T04:05:17.527Z,1.13
2018-01-14T04:06:22.213Z,1.13
2018-01-14T04:07:27.379Z,1.14
2018-01-14T04:08:32.088Z,1.16
2018-01-14T04:09:36.866Z,1.13
2018-01-14T04:10:41.585Z,1.15
2018-01-14T04:11:46.313Z,1.25
2018-01-14T04:12:51.061Z,1.26
2018-01-14T04:13:56.265Z,1.27
2018-01-14T04:15:00.966Z,1.18
2018-01-14T04:16:06.082Z,1.16
2018-01-14T04:17:10.829Z,1.21
2018-01-14T04:18:15.583Z,1.20
2018-01-14T04:19:20.474Z,1.21
2018-01-14T04:20:25.485Z,1.28
2018-01-14T04:21:30.184Z,1.29
2018-01-14T04:22:34.888Z,1.22
2018-01-14T04:23:39.608Z,1.20
2018-01-14T04:24:44.281Z,1.17
2018-01-14T04:25:49.072Z,1.17
2018-01-14T04:26:54.235Z,1.18
2018-01-14T04:27:58.966Z,1.15
2018-01-14T04:29:03.695Z,1.22
2018-01-14T04:30:08.415Z,1.20
2018-01-14T04:31:13.148Z,1.21
2018-01-14T04:32:17.876Z,1.20
2018-01-14T04:33:22.906Z,1.23
2018-01-14T04:34:27.697Z,1.18
2018-01-14T04:35:32.441Z,1.11
2018-01-14T04:36:41.585Z,1.18
2018-01-14T04:37:46.172Z,1.20
2018-01-14T04:38:50.848Z,1.18
2018-01-14T04:39:55.940Z,1.19
2018-01-14T04:41:00.619Z,1.20
2018-01-14T04:42:05.215Z,1.15
2018-01-14T04:43:09.825Z,1.10
2018-01-14T04:44:14.383Z,1.14
2018-01-14T04:45:19.092Z,1.12
2018-01-14T04:46:36.240Z,1.07
2018-01-14T04:47:40.832Z,1.05
2018-01-14T04:48:45.358Z,1.07
2018-01-14T04:49:49.915Z,1.11
2018-01-14T04:50:54.729Z,1.16
2018-01-14T04:51:59.338Z,1.15
2018-01-14T04:53:04.694Z,1.10
2018-01-14T04:54:09.404Z,1.11
2018-01-14T04:55:14.153Z,1.10
2018-01-14T04:56:18.876Z,1.12
2018-01-14T04:57:23.589Z,1.16
2018-01-14T04:58:28.315Z,1.18
2018-01-14T04:59:33.383Z,1.14
2018-01-14T05:00:38.077Z,1.13
2018-01-14T05:01:42.895Z,1.17
2018-01-14T05:02:47.660Z,1.18
2018-01-14T05:03:52.345Z,1.16
2018-01-14T05:04:57.045Z,1.11
2018-01-14T05:06:02.325Z,1.04
2018-01-14T05:07:07.044Z,1.02
2018-01-14T05:08:11.722Z,1.05
2018-01-14T05:09:16.334Z,1.05
2018-01-14T05:10:20.960Z,0.94
2018-01-14T05:11:25.521Z,1.01
2018-01-14T05:12:30.385Z,1.00
2018-01-14T05:13:34.908Z,1.00
2018-01-14T05:14:39.485Z,0.94
2018-01-14T05:15:44.043Z,0.94
2018-01-14T05:16:48.646Z,0.97
2018-01-14T05:17:53.205Z,1.02
2018-01-14T05:18:58.130Z,1.02
2018-01-14T05:20:02.800Z,1.08
2018-01-14T05:21:07.505Z,1.07
2018-01-14T05:22:12.177Z,1.00
2018-01-14T05:23:16.889Z,1.05
2018-01-14T05:24:21.628Z,1.08
2018-01-14T05:25:26.746Z,1.02
2018-01-14T05:26:31.443Z,0.94
2018-01-14T05:27:36.148Z,0.94
2018-01-14T05:28:40.868Z,0.91
2018-01-14T05:29:45.576Z,0.93
2018-01-14T05:30:50.268Z,0.92
2018-01-14T05:31:55.409Z,0.97
2018-01-14T05:33:00.104Z,0.96
2018-01-14T05:34:04.861Z,1.05
2018-01-14T05:35:09.566Z,1.02
2018-01-14T05:36:14.315Z,0.97
2018-01-14T05:37:19.139Z,0.99
2018-01-14T05:38:24.412Z,1.01
2018-01-14T05:39:29.216Z,1.00
2018-01-14T05:40:33.996Z,1.00
2018-01-14T05:41:38.683Z,0.99
2018-01-14T05:42:43.356Z,1.00
2018-01-14T05:43:48.027Z,1.01
2018-01-14T05:44:53.044Z,1.04
2018-01-14T05:45:57.780Z,1.06
2018-01-14T05:47:02.532Z,1.05
2018-01-14T05:48:07.213Z,1.05
2018-01-14T05:49:11.895Z,1.05
2018-01-14T05:50:16.578Z,1.05
2018-01-14T05:51:21.780Z,1.08
2018-01-14T05:52:26.453Z,1.01
2018-01-14T05:53:31.156Z,1.02
2018-01-14T05:54:35.868Z,1.03
2018-01-14T05:55:40.596Z,1.01
2018-01-14T05:56:45.259Z,1.00
2018-01-14T05:57:50.239Z,1.02
2018-01-14T05:58:54.926Z,1.00
2018-01-14T05:59:59.620Z,1.00
2018-01-14T06:01:04.431Z,1.01
2018-01-14T06:02:09.225Z,1.00
2018-01-14T06:03:13.945Z,1.02
2018-01-14T06:04:18.992Z,1.02
2018-01-14T06:05:23.718Z,1.04
2018-01-14T06:06:28.425Z,1.03
2018-01-14T06:07:33.175Z,1.05
2018-01-14T06:08:37.956Z,1.04
2018-01-14T06:09:43.580Z,1.04
2018-01-14T06:10:48.721Z,0.97
2018-01-14T06:11:53.459Z,0.95
2018-01-14T06:12:58.258Z,0.94
2018-01-14T06:14:02.922Z,0.95
2018-01-14T06:15:07.621Z,0.94
2018-01-14T06:16:12.328Z,0.97
2018-01-14T06:17:17.410Z,0.96
2018-01-14T06:18:22.094Z,0.91
2018-01-14T06:19:26.818Z,0.89
2018-01-14T06:20:31.509Z,0.90
2018-01-14T06:21:36.254Z,0.89
2018-01-14T06:22:40.922Z,0.90
2018-01-14T06:23:45.965Z,0.96
2018-01-14T06:24:50.721Z,0.91
2018-01-14T06:25:55.434Z,0.90
2018-01-14T06:27:00.142Z,0.89
2018-01-14T06:28:04.851Z,0.86
2018-01-14T06:29:09.520Z,0.93
2018-01-14T06:30:14.692Z,0.90
2018-01-14T06:31:19.376Z,0.90
2018-01-14T06:32:24.123Z,0.89
2018-01-14T06:33:28.845Z,0.91
2018-01-14T06:34:33.573Z,0.94
2018-01-14T06:35:38.348Z,0.98
2018-01-14T06:36:43.535Z,1.00
2018-01-14T06:37:48.397Z,0.98
2018-01-14T06:38:53.114Z,1.00
2018-01-14T06:39:57.818Z,0.94
2018-01-14T06:41:02.499Z,0.92
2018-01-14T06:42:07.229Z,0.94
2018-01-14T06:43:12.306Z,0.96
2018-01-14T06:44:17.006Z,0.95
2018-01-14T06:45:21.602Z,0.91
2018-01-14T06:46:26.323Z,0.86
2018-01-14T06:47:30.918Z,0.82
2018-01-14T06:48:35.537Z,0.80
2018-01-14T06:49:40.484Z,0.83
2018-01-14T06:50:45.054Z,0.82
2018-01-14T06:51:49.507Z,0.86
2018-01-14T06:52:53.964Z,0.86
2018-01-14T06:53:58.628Z,0.88
2018-01-14T06:55:03.193Z,0.86
2018-01-14T06:56:08.178Z,0.93
2018-01-14T06:57:12.698Z,0.92
2018-01-14T06:58:17.382Z,0.84
2018-01-14T06:59:22.089Z,0.81
2018-01-14T07:00:26.773Z,0.81
2018-01-14T07:01:31.460Z,0.82
2018-01-14T07:02:36.537Z,0.86
2018-01-14T07:03:41.233Z,0.83
2018-01-14T07:04:45.966Z,0.80
2018-01-14T07:05:50.681Z,0.81
2018-01-14T07:06:55.460Z,0.84
2018-01-14T07:08:00.217Z,0.83
2018-01-14T07:09:06.488Z,0.78
2018-01-14T07:10:10.999Z,0.79
2018-01-14T07:11:15.733Z,0.82
2018-01-14T07:12:20.425Z,0.81
2018-01-14T07:13:25.151Z,0.80
2018-01-14T07:14:29.846Z,0.88
2018-01-14T07:15:34.947Z,0.83
2018-01-14T07:16:39.577Z,0.81
2018-01-14T07:17:44.186Z,0.75
2018-01-14T07:18:48.773Z,0.85
2018-01-14T07:19:53.479Z,0.76
2018-01-14T07:20:58.086Z,0.71
2018-01-14T07:22:03.224Z,0.76
2018-01-14T07:23:07.886Z,0.73
2018-01-14T07:24:12.497Z,0.73
2018-01-14T07:25:17.137Z,0.74
2018-01-14T07:26:21.790Z,0.70
2018-01-14T07:27:26.380Z,0.70
2018-01-14T07:28:31.993Z,0.73
2018-01-14T07:29:36.617Z,0.76
2018-01-14T07:30:41.258Z,0.78
2018-01-14T07:31:45.978Z,0.77
2018-01-14T07:32:50.673Z,0.74
2018-01-14T07:33:55.361Z,0.78
2018-01-14T07:35:00.407Z,0.74
2018-01-14T07:36:05.053Z,0.73
2018-01-14T07:37:09.688Z,0.71
2018-01-14T07:38:14.487Z,0.70
2018-01-14T07:39:19.131Z,0.71
2018-01-14T07:40:23.817Z,0.69
2018-01-14T07:41:29.003Z,0.69
2018-01-14T07:42:33.651Z,0.70
2018-01-14T07:43:38.377Z,0.70
2018-01-14T07:44:43.057Z,0.68
2018-01-14T07:45:47.747Z,0.70
2018-01-14T07:46:52.466Z,0.70
2018-01-14T07:47:57.492Z,0.65
2018-01-14T07:49:02.210Z,0.68
2018-01-14T07:50:06.877Z,0.74
2018-01-14T07:51:11.618Z,0.77
2018-01-14T07:52:16.293Z,0.73
2018-01-14T07:53:21.009Z,0.74
2018-01-14T07:54:26.166Z,0.69
2018-01-14T07:55:30.899Z,0.73
2018-01-14T07:56:35.697Z,0.71
2018-01-14T07:57:40.446Z,0.70
2018-01-14T07:58:45.136Z,0.65
2018-01-14T07:59:50.186Z,0.70
2018-01-14T08:00:54.878Z,0.65
2018-01-14T08:01:59.614Z,0.61
2018-01-14T08:03:04.342Z,0.61
2018-01-14T08:04:09.052Z,0.67
2018-01-14T08:05:13.818Z,0.72
2018-01-14T08:06:18.878Z,0.71
2018-01-14T08:07:23.633Z,0.66
2018-01-14T08:08:28.249Z,0.70
2018-01-14T08:09:33.250Z,0.73
2018-01-14T08:10:37.983Z,0.65
2018-01-14T08:11:42.752Z,0.66
2018-01-14T08:12:47.846Z,0.74
2018-01-14T08:13:52.554Z,0.71
2018-01-14T08:14:57.302Z,0.63
2018-01-14T08:16:02.084Z,0.65
2018-01-14T08:17:06.786Z,0.69
2018-01-14T08:18:11.533Z,0.73
2018-01-14T08:19:16.694Z,0.76
2018-01-14T08:20:21.335Z,0.78
2018-01-14T08:21:25.985Z,0.80
2018-01-14T08:22:30.787Z,0.73
2018-01-14T08:23:35.478Z,0.69
2018-01-14T08:24:40.166Z,0.77
2018-01-14T08:25:45.214Z,0.80
2018-01-14T08:26:49.922Z,0.80
2018-01-14T08:27:54.473Z,0.80
2018-01-14T08:28:59.198Z,0.70
2018-01-14T08:30:03.998Z,0.65
2018-01-14T08:31:08.732Z,0.65
2018-01-14T08:32:13.976Z,0.72
2018-01-14T08:33:18.699Z,0.77
2018-01-14T08:34:23.438Z,0.80
2018-01-14T08:35:28.138Z,0.80
2018-01-14T08:36:33.748Z,0.74
2018-01-14T08:37:38.455Z,0.72
2018-01-14T08:38:43.655Z,0.74
2018-01-14T08:39:48.333Z,0.78
2018-01-14T08:40:53.033Z,0.71
2018-01-14T08:41:57.738Z,0.71
2018-01-14T08:43:02.470Z,0.76
2018-01-14T08:44:07.184Z,0.84
2018-01-14T08:45:12.527Z,0.72
2018-01-14T08:46:17.230Z,0.68
2018-01-14T08:47:21.993Z,0.74
2018-01-14T08:48:26.736Z,0.75
2018-01-14T08:49:31.477Z,0.75
2018-01-14T08:50:36.203Z,0.78
2018-01-14T08:51:41.250Z,0.81
2018-01-14T08:52:45.901Z,0.85
2018-01-14T08:53:50.544Z,0.80
2018-01-14T08:54:55.426Z,0.77
2018-01-14T08:56:00.126Z,0.76
2018-01-14T08:57:04.981Z,0.83
2018-01-14T08:58:10.168Z,0.87
2018-01-14T08:59:14.904Z,0.86
2018-01-14T09:00:19.699Z,0.80
2018-01-14T09:01:28.474Z,0.85
2018-01-14T09:02:34.168Z,0.89
2018-01-14T09:03:38.967Z,0.83
2018-01-14T09:04:44.048Z,0.79
2018-01-14T09:05:48.848Z,0.79
2018-01-14T09:06:53.619Z,0.70
2018-01-14T09:07:58.300Z,0.70
2018-01-14T09:09:03.067Z,0.75
2018-01-14T09:10:07.749Z,0.77
2018-01-14T09:11:12.987Z,0.70
2018-01-14T09:12:17.708Z,0.72
2018-01-14T09:13:22.438Z,0.71
2018-01-14T09:14:27.179Z,0.72
2018-01-14T09:15:31.901Z,0.78
2018-01-14T09:16:36.777Z,0.77
2018-01-14T09:17:41.836Z,0.80
2018-01-14T09:18:46.542Z,0.80
2018-01-14T09:19:51.236Z,0.78
2018-01-14T09:20:55.976Z,0.78
2018-01-14T09:22:00.698Z,0.83
2018-01-14T09:23:05.417Z,0.80
2018-01-14T09:24:11.132Z,0.85
2018-01-14T09:25:16.219Z,0.83
2018-01-14T09:26:21.711Z,0.86
2018-01-14T09:27:27.186Z,0.85
2018-01-14T09:28:32.302Z,0.91
2018-01-14T09:29:37.948Z,0.91
2018-01-14T09:30:47.474Z,0.76
2018-01-14T09:31:53.363Z,0.86
2018-01-14T09:32:58.896Z,0.80
2018-01-14T09:34:04.224Z,0.70
2018-01-14T09:35:10.427Z,0.68
2018-01-14T09:36:16.035Z,0.59
2018-01-14T09:37:21.140Z,0.60
2018-01-14T09:38:26.694Z,0.71
2018-01-14T09:39:32.428Z,0.78
2018-01-14T09:40:37.459Z,0.71
2018-01-14T09:41:42.840Z,0.86
2018-01-14T09:42:48.711Z,0.97
2018-01-14T09:43:54.096Z,0.86
2018-01-14T09:44:59.438Z,0.82
2018-01-14T09:46:04.555Z,0.84
2018-01-14T09:47:10.055Z,0.88
2018-01-14T09:48:15.550Z,0.84
2018-01-14T09:49:21.308Z,0.78
2018-01-14T09:50:26.359Z,0.74
2018-01-14T09:51:31.694Z,0.82
2018-01-14T09:52:37.013Z,0.75
2018-01-14T09:53:42.180Z,0.74
2018-01-14T09:54:47.167Z,0.79
2018-01-14T09:55:52.758Z,0.76
2018-01-14T09:56:58.000Z,0.71
2018-01-14T09:58:03.430Z,0.65
2018-01-14T09:59:09.048Z,0.67
2018-01-14T10:00:14.349Z,0.68
2018-01-14T10:01:19.684Z,0.67
2018-01-14T10:02:25.481Z,0.72
2018-01-14T10:03:30.738Z,0.70
2018-01-14T10:04:35.877Z,0.78
2018-01-14T10:05:41.059Z,0.87
2018-01-14T10:06:46.553Z,0.84
2018-01-14T10:07:51.762Z,0.77
2018-01-14T10:08:57.585Z,0.77
2018-01-14T10:10:02.720Z,0.94
2018-01-14T10:11:08.531Z,0.97
2018-01-14T10:12:13.611Z,0.95
2018-01-14T10:13:19.045Z,0.76
2018-01-14T10:14:24.638Z,0.81
2018-01-14T10:15:30.610Z,0.94
2018-01-14T10:16:36.079Z,0.91
2018-01-14T10:17:41.250Z,0.93
2018-01-14T10:18:46.753Z,0.83
2018-01-14T10:19:52.074Z,0.91
2018-01-14T10:20:58.693Z,0.94
2018-01-14T10:22:04.204Z,0.89
2018-01-14T10:23:09.735Z,1.01
2018-01-14T10:24:15.008Z,0.97
2018-01-14T10:25:20.491Z,0.91
2018-01-14T10:26:25.873Z,1.02
2018-01-14T10:27:31.572Z,1.07
2018-01-14T10:28:37.424Z,1.07
2018-01-14T10:29:42.853Z,1.12
2018-01-14T10:30:48.186Z,1.08
2018-01-14T10:31:53.589Z,1.04
2018-01-14T10:32:59.010Z,1.07
2018-01-14T10:34:05.164Z,1.05
2018-01-14T10:35:10.481Z,1.12
2018-01-14T10:36:16.292Z,1.14
2018-01-14T10:37:21.724Z,1.23
2018-01-14T10:38:27.063Z,1.27
2018-01-14T10:39:32.541Z,1.39
2018-01-14T10:40:38.255Z,1.40
2018-01-14T10:41:43.569Z,1.45
2018-01-14T10:42:48.873Z,1.51
2018-01-14T10:43:54.325Z,1.31
2018-01-14T10:44:59.858Z,1.36
2018-01-14T10:46:05.473Z,1.29
2018-01-14T10:47:11.427Z,1.32
2018-01-14T10:48:17.080Z,1.36
2018-01-14T10:49:22.158Z,1.32
2018-01-14T10:50:27.869Z,1.27
2018-01-14T10:51:33.157Z,1.38
2018-01-14T10:52:39.879Z,1.49
2018-01-14T10:53:46.095Z,1.43
2018-01-14T10:54:51.669Z,1.46
2018-01-14T10:55:57.729Z,1.65
2018-01-14T10:57:03.293Z,1.90
2018-01-14T10:58:08.416Z,1.83
2018-01-14T10:59:13.152Z,1.97
2018-01-14T11:00:18.490Z,1.79
2018-01-14T11:01:27.603Z,2.23
2018-01-14T11:02:32.848Z,2.30
2018-01-14T11:03:37.802Z,1.93
2018-01-14T11:04:42.642Z,2.10
2018-01-14T11:05:47.529Z,1.90
2018-01-14T11:06:52.483Z,1.72
2018-01-14T11:07:57.433Z,1.73
2018-01-14T11:09:04.698Z,1.61
2018-01-14T11:10:06.761Z,1.56
2018-01-14T11:11:11.563Z,1.59
2018-01-14T11:12:16.489Z,1.74
2018-01-14T11:13:23.902Z,1.79
2018-01-14T11:14:30.278Z,1.75
2018-01-14T11:15:36.272Z,1.70
2018-01-14T11:16:43.066Z,1.73
2018-01-14T11:17:47.872Z,1.84
2018-01-14T11:18:52.941Z,2.09
2018-01-14T11:19:58.680Z,2.11
2018-01-14T11:21:05.157Z,2.17
2018-01-14T11:22:11.110Z,2.09
2018-01-14T11:23:16.821Z,2.04
2018-01-14T11:24:23.086Z,2.17
2018-01-14T11:25:31.563Z,2.52
2018-01-14T11:26:37.134Z,2.41
2018-01-14T11:27:42.062Z,2.60
2018-01-14T11:28:52.689Z,2.97
2018-01-14T11:30:01.340Z,3.54
2018-01-14T11:31:06.811Z,3.32
2018-01-14T11:32:13.581Z,2.95
2018-01-14T11:33:19.298Z,2.92
2018-01-14T11:34:24.237Z,2.93
2018-01-14T11:35:30.018Z,2.67
2018-01-14T11:36:36.589Z,2.44
2018-01-14T11:37:43.738Z,2.36
2018-01-14T11:38:50.509Z,2.33
2018-01-14T11:39:57.858Z,3.01
2018-01-14T11:41:06.087Z,3.30
2018-01-14T11:42:13.095Z,3.86
2018-01-14T11:43:20.340Z,3.96
2018-01-14T11:44:27.431Z,3.82
2018-01-14T11:45:34.065Z,3.51
2018-01-14T11:46:41.466Z,3.84
2018-01-14T11:47:49.409Z,4.29
2018-01-14T11:48:57.140Z,4.49
2018-01-14T11:50:03.751Z,4.51
2018-01-14T11:51:10.658Z,4.26
2018-01-14T11:52:18.219Z,3.85
2018-01-14T11:53:25.423Z,3.97
2018-01-14T11:54:33.243Z,3.87
2018-01-14T11:55:40.553Z,3.68
2018-01-14T11:56:47.684Z,3.92
2018-01-14T11:57:54.638Z,4.49
2018-01-14T11:58:59.702Z,4.54
2018-01-14T12:00:06.358Z,4.34
2018-01-14T12:01:11.274Z,4.18
2018-01-14T12:02:16.377Z,4.20
2018-01-14T12:03:23.539Z,4.03
2018-01-14T12:04:28.573Z,4.00
2018-01-14T12:05:34.978Z,4.30
2018-01-14T12:06:41.239Z,3.95
2018-01-14T12:07:47.116Z,3.91
2018-01-14T12:08:53.241Z,4.19
2018-01-14T12:09:58.164Z,3.87
2018-01-14T12:11:04.726Z,3.55
2018-01-14T12:12:10.480Z,3.48
2018-01-14T12:13:16.422Z,3.59
2018-01-14T12:14:21.524Z,3.93
2018-01-14T12:15:27.396Z,3.90
2018-01-14T12:16:33.220Z,3.84
2018-01-14T12:17:38.662Z,4.00
2018-01-14T12:18:43.965Z,4.13
2018-01-14T12:19:49.013Z,4.21
2018-01-14T12:20:54.495Z,4.07
2018-01-14T12:22:00.201Z,4.63
2018-01-14T12:23:05.500Z,4.36
2018-01-14T12:24:11.381Z,4.33
2018-01-14T12:25:19.871Z,4.65
2018-01-14T12:26:26.993Z,4.50
2018-01-14T12:27:32.497Z,4.95
2018-01-14T12:28:39.087Z,4.93
2018-01-14T12:29:47.325Z,4.66
2018-01-14T12:30:53.386Z,4.18
2018-01-14T12:31:59.988Z,4.46
2018-01-14T12:33:05.218Z,4.73
2018-01-14T12:34:15.486Z,4.73
2018-01-14T12:35:20.934Z,4.88
2018-01-14T12:36:27.849Z,4.83
2018-01-14T12:37:33.599Z,4.95
2018-01-14T12:38:39.618Z,4.52
2018-01-14T12:39:45.403Z,4.78
2018-01-14T12:40:52.878Z,4.21
2018-01-14T12:41:58.760Z,4.82
2018-01-14T12:43:04.073Z,4.80
2018-01-14T12:44:11.982Z,4.84
2018-01-14T12:45:18.100Z,5.25
2018-01-14T12:46:25.924Z,5.14
2018-01-14T12:47:33.748Z,5.29
2018-01-14T12:48:41.544Z,5.53
2018-01-14T12:49:47.730Z,5.46
2018-01-14T12:50:55.275Z,5.57
2018-01-14T12:52:01.665Z,4.86
2018-01-14T12:53:09.497Z,4.33
2018-01-14T12:54:17.608Z,4.87
2018-01-14T12:55:25.633Z,5.30
2018-01-14T12:56:33.331Z,4.78
2018-01-14T12:57:39.576Z,4.84
2018-01-14T12:58:47.155Z,4.80
2018-01-14T12:59:53.910Z,4.32
2018-01-14T13:01:00.661Z,4.46
2018-01-14T13:02:06.105Z,4.60
2018-01-14T13:03:11.320Z,4.83
2018-01-14T13:04:20.586Z,4.79
2018-01-14T13:05:27.338Z,4.71
2018-01-14T13:06:35.321Z,4.56
2018-01-14T13:07:42.022Z,4.71
2018-01-14T13:08:48.247Z,4.36
2018-01-14T13:09:54.850Z,4.50
2018-01-14T13:11:02.505Z,4.41
2018-01-14T13:12:09.178Z,4.50
2018-01-14T13:13:17.073Z,4.23
2018-01-14T13:14:23.708Z,4.07
2018-01-14T13:15:30.174Z,4.14
2018-01-14T13:16:38.364Z,4.11
2018-01-14T13:17:45.901Z,4.21
2018-01-14T13:18:51.514Z,4.33
2018-01-14T13:19:58.400Z,4.36
2018-01-14T13:21:05.822Z,4.35
2018-01-14T13:22:12.358Z,4.57
2018-01-14T13:23:18.772Z,4.57
2018-01-14T13:24:25.401Z,4.48
2018-01-14T13:25:33.138Z,4.50
2018-01-14T13:26:40.085Z,4.33
2018-01-14T13:27:47.009Z,4.61
2018-01-14T13:28:53.908Z,4.75
2018-01-14T13:30:01.277Z,4.59
2018-01-14T13:31:08.544Z,4.24
2018-01-14T13:32:14.511Z,4.23
2018-01-14T13:33:22.309Z,3.95
2018-01-14T13:34:30.114Z,3.97
2018-01-14T13:35:35.814Z,3.96
2018-01-14T13:36:42.706Z,3.71
2018-01-14T13:37:49.736Z,3.76
2018-01-14T13:38:58.912Z,4.08
2018-01-14T13:40:06.223Z,4.28
2018-01-14T13:41:14.122Z,4.45
2018-01-14T13:42:21.489Z,4.44
2018-01-14T13:43:28.636Z,4.24
2018-01-14T13:44:35.955Z,4.07
2018-01-14T13:45:42.201Z,3.98
2018-01-14T13:46:49.330Z,3.73
2018-01-14T13:47:55.624Z,3.89
2018-01-14T13:49:03.188Z,3.79
2018-01-14T13:50:08.189Z,4.01
2018-01-14T13:51:18.269Z,4.02
2018-01-14T13:52:27.126Z,4.05
2018-01-14T13:53:34.304Z,4.05
2018-01-14T13:54:43.317Z,4.13
2018-01-14T13:55:50.519Z,3.97
2018-01-14T13:56:57.447Z,4.01
2018-01-14T13:58:03.515Z,3.84
2018-01-14T13:59:11.047Z,3.81
2018-01-14T14:00:17.795Z,3.78
2018-01-14T14:01:22.913Z,3.99
2018-01-14T14:02:28.776Z,4.10
2018-01-14T14:03:34.344Z,4.06
2018-01-14T14:04:39.857Z,4.02
2018-01-14T14:05:45.473Z,4.13
2018-01-14T14:06:50.326Z,3.85
2018-01-14T14:07:55.734Z,3.78
2018-01-14T14:09:01.463Z,3.93
2018-01-14T14:10:06.798Z,4.07
2018-01-14T14:11:12.264Z,3.77
2018-01-14T14:12:17.421Z,3.65
2018-01-14T14:13:24.222Z,3.90
2018-01-14T14:14:30.307Z,3.67
2018-01-14T14:15:37.038Z,3.52
2018-01-14T14:16:43.669Z,3.59
2018-01-14T14:17:49.863Z,3.88
2018-01-14T14:18:55.314Z,3.72
2018-01-14T14:20:00.702Z,3.67
2018-01-14T14:21:06.389Z,3.65
2018-01-14T14:22:13.406Z,3.63
2018-01-14T14:23:19.953Z,3.74
2018-01-14T14:24:26.317Z,3.81
2018-01-14T14:25:31.199Z,3.75
2018-01-14T14:26:36.122Z,3.83
2018-01-14T14:27:42.756Z,3.67
2018-01-14T14:28:49.241Z,3.84
2018-01-14T14:29:54.995Z,3.89